Time,TemperatureF,DewpointF,PressureIn,WindDirection,WindDirectionDegrees,WindSpeedMPH,WindSpeedGustMPH,Humidity,HourlyPrecipIn,Conditions,Clouds,dailyrainin,SoftwareType,DateUTC
2013-09-27 00:12:00,48.4,48.1,29.90,ESE,112,1.7,-999.0,99,-99.99,,,0.00,Acu-Link.com,2013-09-27 10:12:00,
2013-09-27 00:27:00,48.6,48.1,29.90,ESE,112,0.0,-999.0,98,-99.99,,,0.00,Acu-Link.com,2013-09-27 10:27:00,
2013-09-27 00:42:00,48.7,48.2,29.90,ESE,112,2.2,-999.0,98,-99.99,,,0.00,Acu-Link.com,2013-09-27 10:42:00,
2013-09-27 00:57:00,48.9,48.4,29.89,ESE,112,1.7,-999.0,98,-99.99,,,0.00,Acu-Link.com,2013-09-27 10:57:00,
2013-09-27 01:13:00,49.1,48.3,29.89,ESE,112,2.7,-999.0,97,-99.99,,,0.00,Acu-Link.com,2013-09-27 11:13:00,
2013-09-27 01:28:00,49.1,48.3,29.89,SE,135,1.7,-999.0,97,-99.99,,,0.00,Acu-Link.com,2013-09-27 11:28:00,
2013-09-27 01:44:00,48.9,48.1,29.89,SE,135,0.0,-999.0,97,-99.99,,,0.00,Acu-Link.com,2013-09-27 11:44:00,
2013-09-27 01:59:00,48.7,48.2,29.89,SE,135,2.2,-999.0,98,-99.99,,,0.00,Acu-Link.com,2013-09-27 11:59:00,
2013-09-27 02:14:00,47.8,47.3,29.87,SE,135,1.1,-999.0,98,-99.99,,,0.00,Acu-Link.com,2013-09-27 12:14:00,
2013-09-27 02:30:00,48.6,47.0,29.87,ESE,112,2.7,-999.0,94,-99.99,,,0.00,Acu-Link.com,2013-09-27 12:30:00,
2013-09-27 02:48:00,48.2,46.8,29.88,ESE,112,0.0,-999.0,95,-99.99,,,0.00,Acu-Link.com,2013-09-27 12:48:00,
2013-09-27 03:03:00,47.1,46.6,29.88,East,90,2.2,-999.0,98,-99.99,,,0.00,Acu-Link.com,2013-09-27 13:03:00,
2013-09-27 03:18:00,46.6,46.3,29.88,ESE,112,0.0,-999.0,99,-99.99,,,0.00,Acu-Link.com,2013-09-27 13:18:00,
2013-09-27 03:34:00,46.8,46.5,29.88,SSE,157,0.0,-999.0,99,-99.99,,,0.00,Acu-Link.com,2013-09-27 13:34:00,
2013-09-27 03:49:00,46.8,46.3,29.88,SSW,202,2.2,-999.0,98,-99.99,,,0.00,Acu-Link.com,2013-09-27 13:49:00,
2013-09-27 04:04:00,46.8,46.5,29.88,ESE,112,1.7,-999.0,99,-99.99,,,0.00,Acu-Link.com,2013-09-27 14:04:00,
2013-09-27 04:19:00,47.3,46.2,29.87,North,0,1.1,-999.0,96,-99.99,,,0.00,Acu-Link.com,2013-09-27 14:19:00,
2013-09-27 04:34:00,47.1,46.6,29.87,NNW,337,2.2,-999.0,98,-99.99,,,0.00,Acu-Link.com,2013-09-27 14:34:00,
2013-09-27 04:50:00,46.9,46.4,29.86,ESE,112,1.7,-999.0,98,-99.99,,,0.00,Acu-Link.com,2013-09-27 14:50:00,
2013-09-27 05:05:00,47.8,46.4,29.86,WNW,292,0.0,-999.0,95,-99.99,,,0.00,Acu-Link.com,2013-09-27 15:05:00,
2013-09-27 05:20:00,48.6,48.1,29.87,SE,135,0.0,-999.0,98,-99.99,,,0.00,Acu-Link.com,2013-09-27 15:20:00,
2013-09-27 05:35:00,48.9,48.1,29.87,South,180,0.0,-999.0,97,-99.99,,,0.00,Acu-Link.com,2013-09-27 15:35:00,
2013-09-27 05:50:00,49.6,47.1,29.87,ESE,112,1.7,-999.0,91,-99.99,,,0.00,Acu-Link.com,2013-09-27 15:50:00,
2013-09-27 06:06:00,50.2,48.8,29.87,South,180,0.0,-999.0,95,-99.99,,,0.00,Acu-Link.com,2013-09-27 16:06:00,
2013-09-27 06:21:00,51.6,49.9,29.88,West,270,0.0,-999.0,94,-99.99,,,0.00,Acu-Link.com,2013-09-27 16:21:00,
2013-09-27 06:36:00,53.8,49.4,29.87,SSE,157,3.2,-999.0,85,-99.99,,,0.00,Acu-Link.com,2013-09-27 16:36:00,
2013-09-27 06:51:00,54.3,49.2,29.88,ESE,112,0.0,-999.0,83,-99.99,,,0.00,Acu-Link.com,2013-09-27 16:51:00,
2013-09-27 07:07:00,55.4,49.0,29.88,West,270,1.7,-999.0,79,-99.99,,,0.00,Acu-Link.com,2013-09-27 17:07:00,
2013-09-27 07:23:00,56.3,49.5,29.88,South,180,2.7,-999.0,78,-99.99,,,0.00,Acu-Link.com,2013-09-27 17:23:00,
2013-09-27 07:38:00,56.3,49.9,29.86,West,270,2.7,-999.0,79,-99.99,,,0.00,Acu-Link.com,2013-09-27 17:38:00,
2013-09-27 07:54:00,56.3,50.2,29.85,SSE,157,4.2,-999.0,80,-99.99,,,0.00,Acu-Link.com,2013-09-27 17:54:00,
2013-09-27 08:09:00,55.8,50.4,29.84,ESE,112,3.2,-999.0,82,-99.99,,,0.00,Acu-Link.com,2013-09-27 18:09:00,
2013-09-27 08:24:00,56.7,51.3,29.83,SE,135,2.7,-999.0,82,-99.99,,,0.00,Acu-Link.com,2013-09-27 18:24:00,
2013-09-27 08:39:00,58.3,52.5,29.82,SSW,202,2.7,-999.0,81,-99.99,,,0.01,Acu-Link.com,2013-09-27 18:39:00,
2013-09-27 08:55:00,57.9,51.1,29.82,SW,225,3.7,-999.0,78,-99.99,,,0.01,Acu-Link.com,2013-09-27 18:55:00,
2013-09-27 09:10:00,58.6,51.1,29.81,WSW,247,3.7,-999.0,76,-99.99,,,0.01,Acu-Link.com,2013-09-27 19:10:00,
2013-09-27 09:25:00,59.4,51.1,29.81,SW,225,3.7,-999.0,74,-99.99,,,0.01,Acu-Link.com,2013-09-27 19:25:00,
2013-09-27 09:40:00,58.3,49.3,29.81,West,270,5.3,-999.0,72,-99.99,,,0.01,Acu-Link.com,2013-09-27 19:40:00,
2013-09-27 09:55:00,57.9,48.9,29.80,West,270,5.3,-999.0,72,-99.99,,,0.01,Acu-Link.com,2013-09-27 19:55:00,
2013-09-27 10:11:00,58.3,49.3,29.79,South,180,0.0,-999.0,72,-99.99,,,0.01,Acu-Link.com,2013-09-27 20:11:00,
2013-09-27 10:26:00,58.3,50.0,29.79,SSE,157,4.2,-999.0,74,-99.99,,,0.01,Acu-Link.com,2013-09-27 20:26:00,
2013-09-27 10:41:00,57.7,49.8,29.78,SSW,202,10.9,-999.0,75,-99.99,,,0.01,Acu-Link.com,2013-09-27 20:41:00,
2013-09-27 10:56:00,57.0,49.9,29.78,SSW,202,5.3,-999.0,77,-99.99,,,0.01,Acu-Link.com,2013-09-27 20:56:00,
2013-09-27 11:11:00,55.8,50.4,29.78,South,180,3.7,-999.0,82,-99.99,,,0.03,Acu-Link.com,2013-09-27 21:11:00,
2013-09-27 11:27:00,55.8,51.4,29.78,West,270,2.7,-999.0,85,-99.99,,,0.03,Acu-Link.com,2013-09-27 21:27:00,
2013-09-27 11:42:00,55.4,49.7,29.77,SSE,157,5.3,-999.0,81,-99.99,,,0.04,Acu-Link.com,2013-09-27 21:42:00,
2013-09-27 11:57:00,55.0,50.6,29.76,SSE,157,1.1,-999.0,85,-99.99,,,0.04,Acu-Link.com,2013-09-27 21:57:00,
2013-09-27 12:12:00,54.5,50.7,29.76,WNW,292,0.0,-999.0,87,-99.99,,,0.04,Acu-Link.com,2013-09-27 22:12:00,
2013-09-27 12:27:00,54.1,52.1,29.75,SE,135,1.1,-999.0,93,-99.99,,,0.04,Acu-Link.com,2013-09-27 22:27:00,
2013-09-27 12:43:00,54.1,52.1,29.76,SE,135,2.2,-999.0,93,-99.99,,,0.05,Acu-Link.com,2013-09-27 22:43:00,
2013-09-27 12:58:00,53.6,52.5,29.76,SSW,202,0.0,-999.0,96,-99.99,,,0.06,Acu-Link.com,2013-09-27 22:58:00,
2013-09-27 13:13:00,53.4,52.8,29.76,ESE,112,2.2,-999.0,98,-99.99,,,0.07,Acu-Link.com,2013-09-27 23:13:00,
2013-09-27 13:28:00,53.6,53.3,29.76,ESE,112,1.7,-999.0,99,-99.99,,,0.08,Acu-Link.com,2013-09-27 23:28:00,
2013-09-27 13:44:00,53.2,52.9,29.76,SE,135,0.0,-999.0,99,-99.99,,,0.09,Acu-Link.com,2013-09-27 23:44:00,
2013-09-27 13:59:00,53.1,52.8,29.75,SE,135,2.7,-999.0,99,-99.99,,,0.10,Acu-Link.com,2013-09-27 23:59:00,
2013-09-27 14:14:00,53.2,52.9,29.75,ESE,112,2.7,-999.0,99,-99.99,,,0.10,Acu-Link.com,2013-09-28 00:14:00,
2013-09-27 14:29:00,53.4,53.1,29.75,SE,135,1.1,-999.0,99,-99.99,,,0.10,Acu-Link.com,2013-09-28 00:29:00,
2013-09-27 14:44:00,53.8,53.5,29.75,WSW,247,1.7,-999.0,99,-99.99,,,0.10,Acu-Link.com,2013-09-28 00:44:00,
2013-09-27 15:00:00,53.8,53.5,29.74,North,0,1.1,-999.0,99,-99.99,,,0.10,Acu-Link.com,2013-09-28 01:00:00,
2013-09-27 15:15:00,53.8,53.5,29.74,NW,315,2.7,-999.0,99,-99.99,,,0.10,Acu-Link.com,2013-09-28 01:15:00,
2013-09-27 15:30:00,54.1,53.0,29.74,ENE,67,2.7,-999.0,96,-99.99,,,0.10,Acu-Link.com,2013-09-28 01:30:00,
2013-09-27 15:45:00,54.1,53.0,29.74,NNW,337,1.1,-999.0,96,-99.99,,,0.10,Acu-Link.com,2013-09-28 01:45:00,
2013-09-27 16:00:00,54.3,52.9,29.73,WNW,292,2.2,-999.0,95,-99.99,,,0.10,Acu-Link.com,2013-09-28 02:00:00,
2013-09-27 16:16:00,54.0,53.2,29.73,SW,225,1.7,-999.0,97,-99.99,,,0.10,Acu-Link.com,2013-09-28 02:16:00,
2013-09-27 16:31:00,54.3,52.6,29.72,WSW,247,3.2,-999.0,94,-99.99,,,0.10,Acu-Link.com,2013-09-28 02:31:00,
2013-09-27 16:46:00,54.7,53.0,29.72,East,90,3.2,-999.0,94,-99.99,,,0.10,Acu-Link.com,2013-09-28 02:46:00,
2013-09-27 17:01:00,54.9,52.9,29.72,WSW,247,5.8,-999.0,93,-99.99,,,0.10,Acu-Link.com,2013-09-28 03:01:00,
2013-09-27 17:16:00,54.7,53.6,29.71,North,0,2.7,-999.0,96,-99.99,,,0.10,Acu-Link.com,2013-09-28 03:16:00,
2013-09-27 17:32:00,54.0,53.7,29.71,SSE,157,6.8,-999.0,99,-99.99,,,0.10,Acu-Link.com,2013-09-28 03:32:00,
2013-09-27 17:47:00,54.0,53.7,29.71,NW,315,0.0,-999.0,99,-99.99,,,0.13,Acu-Link.com,2013-09-28 03:47:00,
2013-09-27 18:17:00,53.8,53.5,29.70,WSW,247,2.2,-999.0,99,-99.99,,,0.13,Acu-Link.com,2013-09-28 04:17:00,
2013-09-27 18:32:00,53.8,53.5,29.70,SE,135,2.2,-999.0,99,-99.99,,,0.13,Acu-Link.com,2013-09-28 04:32:00,
2013-09-27 18:48:00,53.8,53.5,29.70,SSE,157,0.0,-999.0,99,-99.99,,,0.13,Acu-Link.com,2013-09-28 04:48:00,
2013-09-27 19:03:00,54.3,54.0,29.69,South,180,4.7,-999.0,99,-99.99,,,0.13,Acu-Link.com,2013-09-28 05:03:00,
2013-09-27 19:18:00,54.7,54.4,29.68,NE,45,4.7,-999.0,99,-99.99,,,0.14,Acu-Link.com,2013-09-28 05:18:00,
2013-09-27 19:33:00,54.9,54.6,29.68,WNW,292,4.2,-999.0,99,-99.99,,,0.14,Acu-Link.com,2013-09-28 05:33:00,
2013-09-27 19:49:00,55.4,55.1,29.67,South,180,2.2,-999.0,99,-99.99,,,0.14,Acu-Link.com,2013-09-28 05:49:00,
2013-09-27 20:04:00,55.6,55.3,29.67,SSW,202,2.7,-999.0,99,-99.99,,,0.14,Acu-Link.com,2013-09-28 06:04:00,
2013-09-27 20:19:00,55.6,55.3,29.66,ESE,112,3.2,-999.0,99,-99.99,,,0.14,Acu-Link.com,2013-09-28 06:19:00,
2013-09-27 20:34:00,55.8,55.5,29.65,ESE,112,2.7,-999.0,99,-99.99,,,0.14,Acu-Link.com,2013-09-28 06:34:00,
2013-09-27 20:49:00,55.9,55.6,29.66,ESE,112,1.7,-999.0,99,-99.99,,,0.14,Acu-Link.com,2013-09-28 06:49:00,
2013-09-27 21:05:00,56.1,55.8,29.65,West,270,3.2,-999.0,99,-99.99,,,0.00,Acu-Link.com,2013-09-28 07:05:00,
2013-09-27 21:20:00,55.9,55.6,29.65,NE,45,3.2,-999.0,99,-99.99,,,0.00,Acu-Link.com,2013-09-28 07:20:00,
2013-09-27 21:35:00,55.8,55.5,29.64,South,180,3.7,-999.0,99,-99.99,,,0.01,Acu-Link.com,2013-09-28 07:35:00,
2013-09-27 21:51:00,55.8,55.5,29.64,WSW,247,3.2,-999.0,99,-99.99,,,0.02,Acu-Link.com,2013-09-28 07:51:00,
2013-09-27 22:06:00,55.6,55.3,29.63,SSE,157,2.7,-999.0,99,-99.99,,,0.03,Acu-Link.com,2013-09-28 08:06:00,
2013-09-27 22:21:00,55.6,55.3,29.63,ESE,112,1.7,-999.0,99,-99.99,,,0.03,Acu-Link.com,2013-09-28 08:21:00,
2013-09-27 22:36:00,55.8,55.5,29.62,SSW,202,1.1,-999.0,99,-99.99,,,0.04,Acu-Link.com,2013-09-28 08:36:00,
2013-09-27 22:53:00,55.8,55.5,29.63,ESE,112,2.2,-999.0,99,-99.99,,,0.04,Acu-Link.com,2013-09-28 08:53:00,
2013-09-27 23:08:00,55.8,55.5,29.62,SW,225,3.7,-999.0,99,-99.99,,,0.04,Acu-Link.com,2013-09-28 09:08:00,
2013-09-27 23:24:00,55.9,55.6,29.61,SE,135,2.2,-999.0,99,-99.99,,,0.05,Acu-Link.com,2013-09-28 09:24:00,
2013-09-27 23:39:00,55.9,55.6,29.62,South,180,3.2,-999.0,99,-99.99,,,0.05,Acu-Link.com,2013-09-28 09:39:00,
2013-09-27 23:54:00,56.3,56.0,29.60,ESE,112,1.7,-999.0,99,-99.99,,,0.06,Acu-Link.com,2013-09-28 09:54:00,